Time;durP1;ratioP1;P1;durP2;ratioP2;P2;SDS_P1;SDS_P2;PMS_P1;PMS_P2;Temp;Humidity;BMP_temperature;BMP_pressure;BME280_temperature;BME280_humidity;BME280_pressure;Samples;Min_cycle;Max_cycle;Signal;HPM_P1;HPM_P2
2022/09/03 00:01:33;;;;;;;1.93;0.80;;;;;;;15.96;58.28;101862.94;5001321;28;20237;-73
2022/09/03 00:04:10;;;;;;;2.30;0.80;;;;;;;15.93;58.29;101855.13;5004409;28;20567;-73
2022/09/03 00:06:42;;;;;;;1.77;1.23;;;;;;;15.91;58.86;101854.25;5002173;28;20226;-73
2022/09/03 00:09:30;;;;;;;2.57;0.80;;;;;;;15.88;58.64;101850.78;5002737;28;20728;-73
2022/09/03 00:12:10;;;;;;;3.53;1.03;;;;;;;15.79;59.02;101860.97;5000940;28;20206;-73
2022/09/03 00:14:41;;;;;;;1.30;0.80;;;;;;;15.77;59.32;101854.91;5000522;28;20219;-73
2022/09/03 00:17:15;;;;;;;1.30;1.00;;;;;;;15.77;59.12;101857.50;4996047;28;20216;-73
2022/09/03 00:19:58;;;;;;;0.90;0.80;;;;;;;15.73;59.45;101854.00;5005218;28;20198;-73
2022/09/03 00:22:30;;;;;;;1.20;1.00;;;;;;;15.66;59.91;101857.31;4998526;28;20188;-73
2022/09/03 00:25:01;;;;;;;1.33;1.00;;;;;;;15.66;59.84;101861.63;5003070;28;20187;-73
2022/09/03 00:27:28;;;;;;;5.17;1.17;;;;;;;15.68;59.82;101862.50;5004457;28;20222;-73
2022/09/03 00:30:02;;;;;;;1.10;1.00;;;;;;;15.69;59.42;101857.38;4999576;28;20176;-73
2022/09/03 00:32:46;;;;;;;2.50;1.00;;;;;;;15.70;59.17;101853.09;5002710;28;20198;-73
2022/09/03 00:35:23;;;;;;;1.07;0.97;;;;;;;15.70;59.67;101856.53;4995567;28;20187;-73
2022/09/03 00:37:51;;;;;;;1.50;1.00;;;;;;;15.68;59.77;101860.81;5007772;28;20691;-73
2022/09/03 00:40:46;;;;;;;1.10;0.90;;;;;;;15.68;59.54;101867.69;5005621;28;20241;-72
2022/09/03 00:43:46;;;;;;;5.63;1.20;;;;;;;15.67;59.22;101858.19;5002362;28;20689;-73
2022/09/03 00:46:21;;;;;;;1.03;0.83;;;;;;;15.65;59.62;101854.75;5005776;28;20192;-73
2022/09/03 00:49:13;;;;;;;3.37;0.93;;;;;;;15.65;59.95;101853.00;5007531;28;20206;-73
2022/09/03 00:52:13;;;;;;;1.33;0.80;;;;;;;15.63;60.01;101852.13;5002609;28;20301;-73
2022/09/03 00:54:46;;;;;;;1.93;1.00;;;;;;;15.62;59.65;101841.78;5005321;28;20225;-73
2022/09/03 00:57:40;;;;;;;1.63;0.90;;;;;;;15.61;59.77;101851.22;5003086;28;20248;-72
2022/09/03 01:00:10;;;;;;;2.93;1.50;;;;;;;15.63;59.92;101851.25;5008442;28;20578;-73
2022/09/03 01:02:56;;;;;;;1.50;0.83;;;;;;;15.58;60.08;101846.03;5000802;28;20639;-73
2022/09/03 01:05:34;;;;;;;1.30;1.00;;;;;;;15.61;59.94;101851.22;5008236;28;20272;-73
2022/09/03 01:08:19;;;;;;;3.43;1.20;;;;;;;15.63;59.83;101856.41;5007585;28;20230;-72
2022/09/03 01:10:56;;;;;;;1.63;1.17;;;;;;;15.65;59.86;101854.75;5003939;28;20194;-73
2022/09/03 01:13:36;;;;;;;1.77;1.10;;;;;;;15.62;60.07;101852.97;5004148;28;20217;-73
2022/09/03 01:16:11;;;;;;;1.20;0.97;;;;;;;15.63;60.11;101851.25;5006205;28;20208;-73
2022/09/03 01:18:49;;;;;;;1.40;1.00;;;;;;;15.63;59.77;101853.84;5009849;28;20685;-73
2022/09/03 01:21:29;;;;;;;1.63;0.90;;;;;;;15.64;60.25;101855.56;5008273;28;20206;-73
2022/09/03 01:24:28;;;;;;;2.30;1.10;;;;;;;15.65;59.93;101854.75;5006705;28;20221;-73
2022/09/03 01:27:00;;;;;;;2.27;1.00;;;;;;;15.66;60.37;101847.00;5006727;28;20609;-73
2022/09/03 01:29:42;;;;;;;1.40;1.10;;;;;;;15.67;59.65;101842.72;5008957;28;20230;-73
2022/09/03 01:32:22;;;;;;;1.40;1.10;;;;;;;15.66;59.60;101847.00;5006640;28;20191;-73
2022/09/03 01:35:01;;;;;;;3.10;1.20;;;;;;;15.62;60.38;101849.53;5005508;28;20206;-73
2022/09/03 01:37:45;;;;;;;2.00;1.20;;;;;;;15.64;60.12;101856.44;5007631;28;20214;-73
2022/09/03 01:40:29;;;;;;;2.57;1.10;;;;;;;15.61;59.81;101853.81;4997457;28;20243;-73
2022/09/03 01:42:59;;;;;;;1.17;0.90;;;;;;;15.59;59.85;101855.50;5009369;28;20191;-73
2022/09/03 01:45:46;;;;;;;1.60;0.90;;;;;;;15.59;59.79;101852.03;5006438;28;20199;-73
2022/09/03 01:48:25;;;;;;;1.00;0.90;;;;;;;15.58;60.26;101855.47;5005452;28;20210;-73
2022/09/03 01:51:02;;;;;;;2.60;1.30;;;;;;;15.55;60.12;101847.69;5003269;28;20191;-73
2022/09/03 01:54:04;;;;;;;1.73;1.17;;;;;;;15.51;60.65;101846.78;5010068;28;20203;-75
2022/09/03 01:57:08;;;;;;;1.87;1.20;;;;;;;15.47;60.74;101842.41;5002192;28;20183;-73
2022/09/03 01:59:46;;;;;;;2.57;1.13;;;;;;;15.43;60.95;101842.34;4988173;28;20257;-73
2022/09/03 02:02:26;;;;;;;1.50;1.00;;;;;;;15.44;60.69;101841.50;5003793;28;20262;-74
2022/09/03 02:05:01;;;;;;;1.83;0.97;;;;;;;15.39;61.02;101846.59;5002873;28;20643;-74
2022/09/03 02:07:34;;;;;;;1.17;0.90;;;;;;;15.37;61.00;101847.41;5003718;28;20226;-74
2022/09/03 02:10:04;;;;;;;2.67;1.37;;;;;;;15.35;60.58;101834.47;5004048;28;20203;-73
2022/09/03 02:12:32;;;;;;;4.17;1.07;;;;;;;15.34;60.52;101840.47;5004471;28;20249;-73
2022/09/03 02:15:02;;;;;;;1.60;1.17;;;;;;;15.27;61.70;101850.63;5006459;28;20222;-75
2022/09/03 02:17:32;;;;;;;1.37;1.03;;;;;;;15.24;61.55;101845.44;5007142;28;20225;-74
2022/09/03 02:20:02;;;;;;;1.50;1.00;;;;;;;15.19;61.31;101853.09;5003623;28;20579;-73
2022/09/03 02:22:28;;;;;;;1.33;1.20;;;;;;;15.16;61.46;101855.63;5008087;28;20195;-74
2022/09/03 02:24:54;;;;;;;4.53;1.00;;;;;;;15.13;61.75;101853.00;5004092;28;20187;-73
2022/09/03 02:27:19;;;;;;;1.53;1.07;;;;;;;15.10;61.31;101857.25;5007046;28;20214;-74
2022/09/03 02:29:45;;;;;;;2.43;1.00;;;;;;;15.06;61.59;101855.44;4999574;28;20179;-73
2022/09/03 02:32:13;;;;;;;3.00;1.13;;;;;;;15.03;62.02;101853.69;5007705;28;20560;-74
2022/09/03 02:34:40;;;;;;;1.40;1.00;;;;;;;15.00;62.30;101853.63;5004661;28;20219;-74
2022/09/03 02:37:14;;;;;;;1.10;1.00;;;;;;;15.00;61.67;101847.56;5006258;28;20215;-73
2022/09/03 02:39:40;;;;;;;1.40;1.30;;;;;;;14.99;61.70;101856.16;5005414;28;20194;-73
2022/09/03 02:42:06;;;;;;;1.30;1.10;;;;;;;14.96;62.44;101844.09;5006378;28;20195;-74
2022/09/03 02:44:36;;;;;;;3.23;1.10;;;;;;;14.90;62.33;101849.13;5002312;28;20190;-74
2022/09/03 02:47:05;;;;;;;1.60;1.23;;;;;;;14.88;62.05;101842.22;5008867;28;20211;-73
2022/09/03 02:49:31;;;;;;;2.00;1.20;;;;;;;14.87;61.91;101850.81;5003748;28;20182;-73
2022/09/03 02:52:05;;;;;;;2.73;1.13;;;;;;;14.82;62.54;101849.84;5005610;28;20198;-74
2022/09/03 02:54:34;;;;;;;2.20;1.00;;;;;;;14.81;62.72;101848.09;5010519;28;20215;-73
2022/09/03 02:57:01;;;;;;;1.33;0.97;;;;;;;14.77;62.73;101854.03;5003003;28;20219;-74
2022/09/03 02:59:29;;;;;;;2.13;1.07;;;;;;;14.74;62.65;101854.84;5007261;28;20197;-73
2022/09/03 03:01:55;;;;;;;1.33;1.13;;;;;;;14.71;62.65;101853.94;5005269;28;20296;-73
2022/09/03 03:04:21;;;;;;;1.43;0.97;;;;;;;14.70;63.05;101849.63;5006096;28;20657;-74
2022/09/03 03:06:46;;;;;;;1.73;0.97;;;;;;;14.66;63.53;101852.97;5005324;28;20215;-74
2022/09/03 03:09:11;;;;;;;1.17;0.90;;;;;;;14.62;62.99;101846.91;5004820;28;20659;-74
2022/09/03 03:11:39;;;;;;;2.57;1.40;;;;;;;14.58;63.23;101855.41;4999578;28;20544;-74
2022/09/03 03:14:04;;;;;;;2.90;1.10;;;;;;;14.58;63.21;101844.22;5003205;28;20222;-74
2022/09/03 03:16:30;;;;;;;3.00;1.23;;;;;;;14.51;63.58;101848.38;4997834;28;20183;-73
2022/09/03 03:18:56;;;;;;;2.03;1.40;;;;;;;14.47;63.88;101846.59;5006350;28;20674;-74
2022/09/03 03:21:21;;;;;;;1.70;1.40;;;;;;;14.45;64.28;101848.28;5005338;28;20190;-74
2022/09/03 03:23:47;;;;;;;3.67;1.30;;;;;;;14.42;64.52;101848.22;5005027;28;20226;-74
2022/09/03 03:26:17;;;;;;;2.00;1.20;;;;;;;14.42;64.12;101845.66;5003263;28;20989;-73
2022/09/03 03:28:43;;;;;;;1.67;1.13;;;;;;;14.39;64.05;101843.00;5005678;28;20199;-74
2022/09/03 03:31:15;;;;;;;3.00;1.10;;;;;;;14.32;64.72;101841.13;5005765;28;20213;-74
2022/09/03 03:33:41;;;;;;;2.83;1.10;;;;;;;14.31;64.73;101841.97;5002931;28;20223;-74
2022/09/03 03:36:14;;;;;;;1.97;1.20;;;;;;;14.28;64.42;101844.47;5006954;28;20179;-73
2022/09/03 03:38:41;;;;;;;2.13;1.10;;;;;;;14.25;64.74;101849.59;5002188;28;20203;-74
2022/09/03 03:41:13;;;;;;;1.73;1.13;;;;;;;14.24;64.79;101857.28;5004582;28;20697;-74
2022/09/03 03:43:38;;;;;;;1.40;1.10;;;;;;;14.21;64.44;101855.50;5004538;28;20199;-73
2022/09/03 03:46:04;;;;;;;1.70;1.23;;;;;;;14.19;64.34;101852.00;4999731;28;20198;-73
2022/09/03 03:48:31;;;;;;;2.10;1.23;;;;;;;14.18;64.96;101860.56;5005187;28;20203;-73
2022/09/03 03:51:03;;;;;;;3.43;1.10;;;;;;;14.16;65.06;101863.94;5001318;28;20195;-73
2022/09/03 03:53:29;;;;;;;3.27;1.20;;;;;;;14.11;64.94;101858.69;5007317;28;20210;-74
2022/09/03 03:56:00;;;;;;;1.40;1.17;;;;;;;14.11;64.77;101860.41;5000510;28;20214;-73
2022/09/03 03:58:28;;;;;;;4.27;1.30;;;;;;;14.08;64.80;101861.19;5004297;28;20217;-73
2022/09/03 04:00:53;;;;;;;1.50;1.00;;;;;;;14.09;64.79;101862.09;5002535;28;20765;-74
2022/09/03 04:03:19;;;;;;;2.60;1.20;;;;;;;14.05;65.06;101855.97;4997300;28;20264;-73
2022/09/03 04:05:59;;;;;;;2.17;1.13;;;;;;;14.07;64.81;101856.91;5006081;28;20206;-73
2022/09/03 04:08:25;;;;;;;1.97;1.07;;;;;;;14.04;65.24;101858.53;5004078;28;20254;-74
2022/09/03 04:10:51;;;;;;;2.33;0.80;;;;;;;14.04;64.75;101866.28;5011563;28;20179;-73
2022/09/03 04:13:16;;;;;;;2.77;0.93;;;;;;;13.99;65.02;101860.16;5018187;28;20631;-73
2022/09/03 04:15:42;;;;;;;1.57;1.13;;;;;;;13.93;65.48;101862.56;5008316;28;20195;-73
2022/09/03 04:18:07;;;;;;;1.73;1.03;;;;;;;13.90;64.84;101868.53;5006065;28;20215;-74
2022/09/03 04:20:36;;;;;;;2.23;1.13;;;;;;;13.88;65.48;101862.47;5008659;28;20192;-73
2022/09/03 04:23:03;;;;;;;3.27;1.20;;;;;;;13.86;65.16;101863.28;5003283;28;20888;-73
2022/09/03 04:25:28;;;;;;;2.00;1.30;;;;;;;13.88;65.39;101859.91;5008598;28;20191;-74
2022/09/03 04:27:53;;;;;;;1.30;1.07;;;;;;;13.87;65.11;101853.03;5004270;28;20703;-73
2022/09/03 04:30:19;;;;;;;2.80;1.10;;;;;;;13.86;65.60;101850.41;4999749;28;20274;-74
2022/09/03 04:32:54;;;;;;;1.73;1.20;;;;;;;13.88;64.88;101853.88;5009842;28;20218;-74
2022/09/03 04:35:22;;;;;;;1.80;1.20;;;;;;;13.84;65.04;101855.53;5000272;28;20600;-73
2022/09/03 04:37:48;;;;;;;1.77;1.37;;;;;;;13.83;65.13;101853.78;5006457;28;20199;-74
2022/09/03 04:40:14;;;;;;;1.37;1.10;;;;;;;13.83;64.87;101853.78;5005266;28;20657;-74
2022/09/03 04:42:40;;;;;;;2.27;1.20;;;;;;;13.84;65.44;101859.78;5011164;28;20253;-73
2022/09/03 04:45:06;;;;;;;2.70;1.20;;;;;;;13.84;65.24;101868.41;5005496;28;20195;-73
2022/09/03 04:47:31;;;;;;;2.80;1.30;;;;;;;13.86;64.79;101865.84;5011237;28;20214;-73
2022/09/03 04:49:57;;;;;;;1.20;1.10;;;;;;;13.81;64.76;101876.03;5005513;28;20310;-73
2022/09/03 04:52:23;;;;;;;3.50;1.40;;;;;;;13.80;65.12;101874.31;5005132;28;20187;-73
2022/09/03 04:54:49;;;;;;;1.30;1.00;;;;;;;13.81;64.83;101875.19;5000459;28;20246;-74
2022/09/03 04:57:14;;;;;;;1.33;0.93;;;;;;;13.80;65.23;101873.41;5005696;28;20839;-73
2022/09/03 04:59:41;;;;;;;2.43;1.23;;;;;;;13.82;64.71;101877.81;5003609;28;20282;-74
2022/09/03 05:02:08;;;;;;;1.40;1.20;;;;;;;13.82;64.85;101872.66;5002874;28;20199;-73
2022/09/03 05:04:34;;;;;;;2.57;1.13;;;;;;;13.82;65.04;101874.34;5009546;28;20187;-74
2022/09/03 05:06:59;;;;;;;2.73;1.20;;;;;;;13.84;65.09;101873.53;5006038;28;20223;-73
2022/09/03 05:09:25;;;;;;;2.57;1.50;;;;;;;13.85;64.71;101874.44;5011679;28;20195;-74
2022/09/03 05:11:50;;;;;;;2.00;1.20;;;;;;;13.87;64.93;101865.91;5004007;28;20195;-74
2022/09/03 05:14:16;;;;;;;1.37;1.03;;;;;;;13.92;64.87;101868.56;5005890;28;20258;-75
2022/09/03 05:16:41;;;;;;;2.93;1.10;;;;;;;13.97;64.15;101867.84;4999771;28;20642;-73
2022/09/03 05:19:07;;;;;;;2.93;1.53;;;;;;;14.02;64.31;101861.06;5007572;28;20194;-74
2022/09/03 05:21:34;;;;;;;1.70;1.17;;;;;;;14.08;63.86;101858.63;5006955;28;20206;-74
2022/09/03 05:24:01;;;;;;;3.10;1.23;;;;;;;14.14;63.89;101856.16;5008515;28;20192;-74
2022/09/03 05:26:32;;;;;;;2.37;0.90;;;;;;;14.21;63.61;101855.50;5003218;28;20834;-73
2022/09/03 05:28:59;;;;;;;2.70;1.10;;;;;;;14.26;63.81;101853.00;5002235;28;20196;-73
2022/09/03 05:31:27;;;;;;;3.10;1.37;;;;;;;14.35;63.25;101845.47;5008230;28;20198;-73
2022/09/03 05:33:59;;;;;;;1.50;1.20;;;;;;;14.47;62.95;101853.47;5006664;28;20195;-73
2022/09/03 05:36:31;;;;;;;3.33;1.30;;;;;;;14.56;62.29;101849.38;5008897;28;20654;-73
2022/09/03 05:38:57;;;;;;;1.83;1.00;;;;;;;14.68;61.91;101859.03;5005933;28;20253;-73
2022/09/03 05:41:24;;;;;;;2.00;1.10;;;;;;;14.76;61.94;101854.88;5007874;28;20198;-77
2022/09/03 05:43:54;;;;;;;1.40;1.00;;;;;;;14.87;61.47;101859.41;5008702;28;20266;-73
2022/09/03 05:46:31;;;;;;;2.07;1.00;;;;;;;14.96;61.20;101856.13;5020916;28;20238;-73
2022/09/03 05:48:58;;;;;;;2.30;1.30;;;;;;;15.08;61.49;101859.78;5009716;28;20326;-68
2022/09/03 05:51:24;;;;;;;3.07;1.33;;;;;;;15.17;60.64;101853.91;5004684;28;20191;-73
2022/09/03 05:53:49;;;;;;;1.73;1.23;;;;;;;15.28;60.50;101855.81;5008481;28;20199;-74
2022/09/03 05:56:17;;;;;;;2.67;1.13;;;;;;;15.31;60.37;101855.00;5002178;28;20223;-72
2022/09/03 05:58:46;;;;;;;2.53;1.20;;;;;;;15.37;59.58;101842.25;4999183;28;20222;-73
2022/09/03 06:01:19;;;;;;;7.93;1.23;;;;;;;15.46;59.99;101853.56;5004402;28;20210;-73
2022/09/03 06:03:47;;;;;;;1.37;0.90;;;;;;;15.60;59.35;101851.19;5000937;28;20858;-73
2022/09/03 06:06:14;;;;;;;2.13;1.17;;;;;;;15.73;58.87;101855.69;5004102;28;20753;-73
2022/09/03 06:08:40;;;;;;;3.83;1.30;;;;;;;15.80;58.90;101854.97;5008296;28;20292;-73
2022/09/03 06:11:07;;;;;;;3.00;1.27;;;;;;;15.91;58.39;101864.59;5002150;28;20184;-73
2022/09/03 06:13:33;;;;;;;2.10;1.20;;;;;;;15.96;58.21;101855.19;5005818;28;20218;-73
2022/09/03 06:16:01;;;;;;;1.90;1.27;;;;;;;16.06;57.58;101854.47;5006223;28;20281;-73
2022/09/03 06:18:28;;;;;;;4.47;1.40;;;;;;;16.20;57.79;101852.94;5009681;28;20229;-73
2022/09/03 06:20:58;;;;;;;1.70;1.00;;;;;;;16.26;57.30;101852.16;5003802;28;20183;-73
2022/09/03 06:23:24;;;;;;;1.60;1.10;;;;;;;16.37;57.34;101853.13;5008532;28;20729;-74
2022/09/03 06:26:13;;;;;;;1.47;1.10;;;;;;;16.49;57.70;101851.59;5004129;28;20532;-73
2022/09/03 06:28:42;;;;;;;1.33;1.17;;;;;;;16.59;57.02;101856.03;5007167;28;20806;-73
2022/09/03 06:31:11;;;;;;;2.30;1.27;;;;;;;16.66;56.34;101865.59;5002787;28;20637;-73
2022/09/03 06:33:38;;;;;;;3.47;1.20;;;;;;;16.77;55.96;101863.13;5003172;28;20596;-74
2022/09/03 06:36:06;;;;;;;4.50;1.20;;;;;;;16.85;56.08;101867.50;5003309;28;20196;-74
2022/09/03 06:38:34;;;;;;;4.13;1.20;;;;;;;16.94;55.55;101870.19;5006486;28;20289;-73
2022/09/03 06:41:03;;;;;;;2.10;1.27;;;;;;;17.18;55.96;101866.97;5006129;28;20278;-74
2022/09/03 06:43:33;;;;;;;3.30;1.20;;;;;;;17.31;55.67;101864.50;5003186;28;20216;-73
2022/09/03 06:46:10;;;;;;;2.60;1.40;;;;;;;17.45;54.85;101865.50;5006801;28;20199;-73
2022/09/03 06:48:37;;;;;;;1.53;1.20;;;;;;;17.56;54.93;101860.41;5001925;28;20245;-73
2022/09/03 06:51:08;;;;;;;3.30;1.30;;;;;;;17.67;53.96;101862.22;5006582;28;20202;-73
2022/09/03 06:53:36;;;;;;;2.47;1.30;;;;;;;17.80;53.80;101868.34;4988350;28;20199;-74
2022/09/03 06:56:05;;;;;;;1.70;1.07;;;;;;;17.90;53.86;101862.38;4996426;28;20634;-73
2022/09/03 06:58:34;;;;;;;4.13;1.00;;;;;;;18.05;52.95;101865.06;4995280;28;20226;-72
2022/09/03 07:01:08;;;;;;;3.03;1.50;;;;;;;18.23;53.30;101866.00;5000440;28;20205;-74
2022/09/03 07:03:35;;;;;;;3.20;1.30;;;;;;;18.33;52.80;101859.19;5004254;28;20191;-75
2022/09/03 07:06:02;;;;;;;2.67;1.20;;;;;;;18.23;52.39;101867.75;4997883;28;20698;-74
2022/09/03 07:08:29;;;;;;;1.70;1.00;;;;;;;18.48;52.86;101865.31;5005920;28;20226;-74
2022/09/03 07:10:54;;;;;;;3.80;1.30;;;;;;;18.65;51.52;101855.81;5006133;28;20191;-74
2022/09/03 07:13:20;;;;;;;3.17;1.10;;;;;;;18.78;51.22;101864.50;5006315;28;20590;-75
2022/09/03 07:15:45;;;;;;;3.87;1.10;;;;;;;18.94;51.45;101864.56;5009181;28;20654;-71
2022/09/03 07:18:11;;;;;;;3.27;1.17;;;;;;;19.17;50.89;101860.22;5002782;28;20202;-75
2022/09/03 07:20:36;;;;;;;2.33;1.43;;;;;;;19.16;50.09;101861.09;4974336;28;20310;-75
2022/09/03 07:23:02;;;;;;;2.70;1.17;;;;;;;19.14;50.24;101859.38;5001479;28;20191;-75
2022/09/03 07:25:27;;;;;;;2.70;1.23;;;;;;;19.19;50.11;101858.53;5003461;28;20274;-75
2022/09/03 07:27:53;;;;;;;3.97;1.10;;;;;;;19.23;49.91;101857.69;5005754;28;20895;-74
2022/09/03 07:30:19;;;;;;;3.17;1.40;;;;;;;19.43;49.22;101857.72;4994351;28;20245;-75
2022/09/03 07:32:50;;;;;;;1.47;0.97;;;;;;;19.58;49.25;101855.94;5000718;28;20194;-74
2022/09/03 07:35:17;;;;;;;2.00;1.10;;;;;;;19.66;48.06;101854.19;5001380;28;20567;-74
2022/09/03 07:37:42;;;;;;;4.33;1.23;;;;;;;19.73;49.17;101861.13;5004029;28;20295;-75
2022/09/03 07:40:09;;;;;;;1.50;1.30;;;;;;;19.94;48.44;101861.06;4997970;28;20277;-74
2022/09/03 07:42:37;;;;;;;1.90;1.07;;;;;;;19.99;49.12;101861.94;4995701;28;20655;-75
2022/09/03 07:45:08;;;;;;;1.83;1.40;;;;;;;20.06;47.68;101858.47;5004539;28;20184;-75
2022/09/03 07:47:34;;;;;;;4.13;1.30;;;;;;;20.26;47.88;101861.03;4996495;28;20203;-74
2022/09/03 07:50:00;;;;;;;1.60;1.30;;;;;;;20.31;47.60;101852.31;5008179;28;20636;-75
2022/09/03 07:52:26;;;;;;;3.13;1.10;;;;;;;20.56;47.94;101853.94;5001495;28;20190;-76
2022/09/03 07:54:52;;;;;;;3.00;1.20;;;;;;;20.52;46.49;101852.22;5007779;28;20302;-76
2022/09/03 07:57:17;;;;;;;1.47;1.17;;;;;;;20.63;46.53;101858.22;4997750;28;20310;-75
2022/09/03 07:59:43;;;;;;;1.23;1.07;;;;;;;20.73;47.05;101859.06;5005145;28;20654;-75
2022/09/03 08:02:08;;;;;;;1.63;1.30;;;;;;;20.94;46.64;101857.22;4999044;28;20206;-75
2022/09/03 08:04:35;;;;;;;2.23;1.10;;;;;;;21.20;45.31;101855.31;5005161;28;20175;-75
2022/09/03 08:07:00;;;;;;;2.13;1.20;;;;;;;21.34;45.25;101849.97;4998801;28;20594;-75
2022/09/03 08:09:26;;;;;;;3.17;1.23;;;;;;;21.58;45.64;101849.75;5010097;28;20194;-75
2022/09/03 08:11:51;;;;;;;5.63;1.43;;;;;;;21.80;44.59;101851.31;5001184;28;20187;-75
2022/09/03 08:14:17;;;;;;;4.00;1.20;;;;;;;21.66;44.55;101847.94;5007079;28;20612;-75
2022/09/03 08:16:48;;;;;;;3.33;1.00;;;;;;;21.76;44.75;101847.00;5003545;28;20607;-76
2022/09/03 08:19:17;;;;;;;3.63;1.20;;;;;;;21.82;44.19;101847.78;5004805;28;20757;-75
2022/09/03 08:21:43;;;;;;;2.77;1.17;;;;;;;22.15;43.85;101846.53;4977585;28;20220;-75
2022/09/03 08:24:09;;;;;;;3.53;1.10;;;;;;;22.19;43.65;101841.28;5004648;28;20225;-75
2022/09/03 08:26:37;;;;;;;2.70;1.23;;;;;;;22.11;43.20;101845.72;5010426;28;20199;-75
2022/09/03 08:29:04;;;;;;;3.53;1.20;;;;;;;21.43;44.44;101849.88;5003988;28;20199;-75
2022/09/03 08:31:31;;;;;;;1.90;1.03;;;;;;;22.06;43.70;101850.13;5006457;28;20600;-75
2022/09/03 08:33:58;;;;;;;1.57;1.10;;;;;;;22.15;44.10;101839.59;5001047;28;20297;-74
2022/09/03 08:36:29;;;;;;;2.50;1.10;;;;;;;22.70;43.85;101844.13;5006456;28;20203;-75
2022/09/03 08:38:56;;;;;;;1.60;1.13;;;;;;;22.88;42.22;101836.03;5000094;28;20274;-75
2022/09/03 08:41:32;;;;;;;2.70;1.07;;;;;;;22.97;42.00;101843.72;5010753;28;20263;-75
2022/09/03 08:44:16;;;;;;;2.60;1.20;;;;;;;22.99;41.80;101836.72;5002436;28;20756;-75
2022/09/03 08:46:57;;;;;;;2.33;1.30;;;;;;;22.56;41.91;101846.91;5005348;28;20270;-75
2022/09/03 08:49:30;;;;;;;2.80;1.40;;;;;;;22.74;41.98;101836.22;4998231;28;20187;-75
2022/09/03 08:52:02;;;;;;;4.23;1.40;;;;;;;23.05;41.57;101832.25;5000301;28;20264;-75
2022/09/03 08:54:29;;;;;;;2.63;1.20;;;;;;;23.17;42.45;101836.44;5006481;28;20215;-74
2022/09/03 08:57:00;;;;;;;2.13;1.10;;;;;;;23.21;41.34;101840.75;5007485;28;20291;-74
2022/09/03 08:59:27;;;;;;;1.70;1.27;;;;;;;23.18;41.37;101840.75;5008733;28;20199;-74
2022/09/03 09:02:24;;;;;;;3.33;1.10;;;;;;;23.24;41.20;101828.50;4999636;28;20195;-73
2022/09/03 09:05:02;;;;;;;2.60;1.30;;;;;;;23.55;41.63;101832.31;5002272;28;20274;-74
2022/09/03 09:07:41;;;;;;;2.13;0.97;;;;;;;24.03;40.92;101823.56;5003987;28;20649;-74
2022/09/03 09:10:27;;;;;;;1.97;1.30;;;;;;;24.34;39.41;101824.66;4999923;28;20201;-74
2022/09/03 09:13:16;;;;;;;2.73;1.20;;;;;;;24.16;39.60;101832.00;5007887;28;20802;-73
2022/09/03 09:16:17;;;;;;;2.90;1.20;;;;;;;24.18;39.31;101827.63;5002523;28;20256;-75
2022/09/03 09:19:03;;;;;;;2.13;1.25;;;;;;;24.57;38.89;101830.25;5003464;28;20639;-76
2022/09/03 09:21:36;;;;;;;1.60;1.25;;;;;;;25.07;38.11;101824.75;5005307;28;21038;-75
2022/09/03 09:24:11;;;;;;;3.75;1.42;;;;;;;24.75;37.78;101819.41;5004689;28;20195;-75
2022/09/03 09:26:40;;;;;;;3.30;1.20;;;;;;;25.34;37.02;101816.22;4993269;28;20195;-76
2022/09/03 09:29:11;;;;;;;3.95;1.30;;;;;;;25.73;35.82;101816.91;4999267;28;20194;-75
2022/09/03 09:31:38;;;;;;;2.13;1.25;;;;;;;28.22;32.45;101796.47;5010803;28;20183;-76
2022/09/03 09:34:06;;;;;;;2.75;1.30;;;;;;;31.68;27.77;101789.47;5002716;28;20203;-75
2022/09/03 09:36:41;;;;;;;2.28;1.50;;;;;;;32.46;26.23;101785.19;4990492;28;20241;-76
2022/09/03 09:39:08;;;;;;;5.40;1.55;;;;;;;33.69;24.96;101780.53;4997680;28;20278;-76
2022/09/03 09:41:34;;;;;;;3.45;1.50;;;;;;;31.99;26.40;101788.72;5001502;28;20187;-76
2022/09/03 09:44:04;;;;;;;4.00;1.35;;;;;;;30.59;27.41;101789.75;4997657;28;20254;-75
2022/09/03 09:46:38;;;;;;;3.85;1.00;;;;;;;29.91;28.68;101790.28;5010494;28;20229;-75
2022/09/03 09:49:21;;;;;;;1.83;1.35;;;;;;;28.45;30.75;101796.47;5005371;28;20196;-75
2022/09/03 09:51:46;;;;;;;3.80;1.45;;;;;;;27.65;32.08;101798.59;5005170;28;20777;-76
2022/09/03 09:54:19;;;;;;;1.90;1.10;;;;;;;27.01;33.18;101798.16;4990436;28;20240;-75
2022/09/03 09:56:46;;;;;;;3.60;1.38;;;;;;;26.90;31.98;101801.13;5009585;23;20235;-76
2022/09/03 09:59:13;;;;;;;2.80;1.38;;;;;;;26.90;32.61;101795.03;4999600;28;20316;-76
2022/09/03 10:01:41;;;;;;;2.92;1.10;;;;;;;27.18;33.03;101801.09;5000348;28;20289;-77
2022/09/03 10:04:20;;;;;;;1.63;1.00;;;;;;;26.92;32.48;101796.72;5002230;28;20185;-77
2022/09/03 10:06:54;;;;;;;3.78;1.48;;;;;;;27.45;33.28;101798.41;5004808;28;20270;-77
2022/09/03 10:09:28;;;;;;;1.80;1.15;;;;;;;27.15;33.12;101796.81;5005519;28;20207;-77
2022/09/03 10:12:04;;;;;;;1.33;0.90;;;;;;;27.23;33.51;101793.94;4990583;28;20194;-77
2022/09/03 10:14:36;;;;;;;1.30;1.20;;;;;;;27.26;32.65;101785.97;5008641;28;20211;-77
2022/09/03 10:17:40;;;;;;;2.97;1.20;;;;;;;26.95;33.11;101785.22;5005290;28;20191;-77
2022/09/03 10:20:30;;;;;;;7.63;1.58;;;;;;;25.93;33.96;101791.00;5009397;28;20191;-77
2022/09/03 10:23:00;;;;;;;1.65;1.20;;;;;;;26.71;32.57;101780.78;4990127;28;20620;-77
2022/09/03 10:25:38;;;;;;;3.63;1.25;;;;;;;26.43;33.07;101783.34;5005469;28;20238;-77
2022/09/03 10:28:06;;;;;;;5.47;1.13;;;;;;;27.07;32.78;101774.31;5004857;28;20214;-77
2022/09/03 10:30:46;;;;;;;3.13;1.13;;;;;;;27.20;33.04;101771.25;5004937;28;20183;-77
2022/09/03 10:33:26;;;;;;;2.03;1.30;;;;;;;27.38;31.91;101757.44;4992178;28;20627;-76
2022/09/03 10:36:18;;;;;;;2.83;1.05;;;;;;;27.33;31.38;101763.78;5004085;28;20191;-77
2022/09/03 10:38:50;;;;;;;3.15;1.33;;;;;;;27.19;32.08;101759.00;5000062;28;20392;-76
2022/09/03 10:41:15;;;;;;;1.20;0.95;;;;;;;27.68;31.15;101756.34;5019202;28;20199;-77
2022/09/03 10:43:51;;;;;;;7.28;1.38;;;;;;;27.35;31.09;101754.06;5008961;28;20179;-79
2022/09/03 10:46:28;;;;;;;6.75;1.23;;;;;;;28.02;30.83;101750.72;5006759;28;20179;-79
2022/09/03 10:49:09;;;;;;;3.20;1.00;;;;;;;28.39;30.98;101753.66;5006704;28;20219;-77
2022/09/03 10:51:41;;;;;;;2.28;1.10;;;;;;;28.35;29.46;101755.56;4989031;28;20194;-78
2022/09/03 10:54:34;;;;;;;2.53;1.30;;;;;;;28.36;29.12;101749.34;5008796;28;20214;-77
2022/09/03 10:57:23;;;;;;;2.85;1.25;;;;;;;28.21;29.31;101736.78;5010382;28;20215;-78
2022/09/03 11:00:11;;;;;;;1.63;1.00;;;;;;;28.33;28.79;101743.34;5008702;28;20194;-78
2022/09/03 11:03:23;;;;;;;2.63;0.93;;;;;;;28.27;28.61;101747.06;4990593;28;20233;-77
2022/09/03 11:06:06;;;;;;;2.92;0.98;;;;;;;29.26;28.15;101740.38;5018116;28;20191;-77
2022/09/03 11:08:51;;;;;;;3.55;1.15;;;;;;;28.35;27.76;101742.38;5010834;28;20206;-77
2022/09/03 11:11:26;;;;;;;3.03;1.00;;;;;;;28.84;27.64;101741.28;5009250;28;20194;-79
2022/09/03 11:14:09;;;;;;;2.03;1.00;;;;;;;28.93;27.58;101740.91;4989946;28;20199;-79
2022/09/03 11:16:47;;;;;;;2.75;1.10;;;;;;;29.34;27.46;101729.47;5007753;28;20274;-78
2022/09/03 11:19:17;;;;;;;2.53;0.98;;;;;;;29.46;27.37;101732.41;5007835;28;20199;-78
2022/09/03 11:21:46;;;;;;;1.60;1.00;;;;;;;28.97;26.43;101724.03;4975901;28;20191;-78
2022/09/03 11:24:16;;;;;;;1.48;0.95;;;;;;;29.08;26.47;101729.72;5008158;28;20646;-77
2022/09/03 11:26:44;;;;;;;1.23;0.88;;;;;;;29.33;25.66;101722.47;5011370;28;20187;-78
2022/09/03 11:29:28;;;;;;;4.68;1.20;;;;;;;29.04;26.67;101726.38;4991930;28;20215;-78
2022/09/03 11:31:58;;;;;;;3.00;1.10;;;;;;;28.09;28.20;101731.97;5007711;28;20187;-78
2022/09/03 11:34:24;;;;;;;3.63;1.40;;;;;;;27.44;28.34;101728.25;5009929;28;20213;-78
2022/09/03 11:36:51;;;;;;;3.00;1.13;;;;;;;27.48;28.01;101726.38;5010686;28;20223;-78
2022/09/03 11:40:02;;;;;;;4.68;1.25;;;;;;;27.58;28.50;101731.25;5009758;28;20218;-78
2022/09/03 11:42:33;;;;;;;2.38;1.20;;;;;;;27.32;29.54;101726.09;4984236;28;20234;-78
2022/09/03 11:45:21;;;;;;;4.95;1.05;;;;;;;26.21;30.36;101728.88;4996166;28;20186;-78
2022/09/03 11:47:48;;;;;;;5.90;1.50;;;;;;;26.98;29.01;101729.91;5007498;28;20585;-78